»·PEaware :: SKW5474 KPSP-KSFO

SKW5474 :: KPSP-KSFO

FLIGHT INFORMATION

Flight Status: Arrived
Operator:
SkyWest Airlines
More flights by this operator :: More flights under this callsign
Pilot: Alfredo R. (12181)
Aircraft: CANADAIR CL-600 CRJ-200
(CRJ2)
More flights by this aircraft type
Origin: KPSP Palm Springs Intl
United States
Destination: KSFO San Francisco Intl
United States
More flights between these airports :: More routes between these airports
Route: +CATH1 PSP V386 PMD MAKRS SERFR SERFR4
File this flight plan on PilotEdge
Remarks:
Altitude:
(Current/Filed)
280ft
Speed:
(Current/Filed)
425kts
Departed: 24-Jun-20 06:39 PM
Arrived: 24-Jun-20 07:53 PM
Distance/Time
Traveled:
366nm/1:14
Distance/Time
To Go:
Arrived

Flight Plot

Page will automatically refresh every two minutes.

Flight plan parsing failed; only flown route is shown


Map Options




Map Legend


Flown Route
Filed Route
Departure Airport
Arrival Airport
Navaid (VOR, NDB)
Fix

Horizontal Profiles

Position Reports

Time Latitude Longitude Heading Altitude Ground
Speed
24-Jun-20 17:51 33.823844 -116.506549 194 413ft 0kts
24-Jun-20 17:52 33.823844 -116.506549 194 413ft 0kts
24-Jun-20 17:53 33.823844 -116.506549 194 413ft 0kts
24-Jun-20 17:54 33.823844 -116.506549 194 413ft 0kts
24-Jun-20 17:55 33.823844 -116.506549 194 413ft 0kts
24-Jun-20 17:56 33.823844 -116.506549 194 413ft 0kts
24-Jun-20 17:57 33.823844 -116.506549 194 413ft 0kts
24-Jun-20 17:58 33.823844 -116.506549 194 413ft 0kts
24-Jun-20 17:59 33.823844 -116.506549 194 413ft 0kts
24-Jun-20 18:00 33.823844 -116.506549 194 413ft 0kts
24-Jun-20 18:01 33.823844 -116.506549 194 413ft 0kts
24-Jun-20 18:02 33.823844 -116.506549 194 413ft 0kts
24-Jun-20 18:03 33.823844 -116.506549 194 413ft 0kts
24-Jun-20 18:04 33.823844 -116.506549 194 413ft 0kts
24-Jun-20 18:05 33.823844 -116.506549 194 413ft 0kts
24-Jun-20 18:06 33.823844 -116.506549 194 413ft 0kts
24-Jun-20 18:07 33.823844 -116.506549 194 413ft 0kts
24-Jun-20 18:08 33.823844 -116.506549 195 413ft 0kts
24-Jun-20 18:09 33.823844 -116.506549 195 413ft 0kts
24-Jun-20 18:10 33.823844 -116.506549 195 413ft 0kts
24-Jun-20 18:11 33.823844 -116.506549 195 413ft 0kts
24-Jun-20 18:12 33.823844 -116.506549 195 413ft 0kts
24-Jun-20 18:13 33.823844 -116.506549 195 413ft 0kts
24-Jun-20 18:14 33.823844 -116.506549 195 413ft 0kts
24-Jun-20 18:15 33.823844 -116.506549 195 413ft 0kts
24-Jun-20 18:16 33.823844 -116.506549 195 413ft 0kts
24-Jun-20 18:17 33.823844 -116.506549 195 413ft 0kts
24-Jun-20 18:18 33.823844 -116.506549 195 413ft 0kts
24-Jun-20 18:19 33.823840 -116.506550 195 413ft 0kts
24-Jun-20 18:20 33.824297 -116.506400 196 414ft 2kts
24-Jun-20 18:21 33.824377 -116.505853 324 414ft 0kts
24-Jun-20 18:22 33.824823 -116.506256 323 415ft 0kts
24-Jun-20 18:23 33.824824 -116.506256 323 415ft 0kts
24-Jun-20 18:24 33.824824 -116.506256 323 415ft 0kts
24-Jun-20 18:25 33.824824 -116.506256 323 415ft 0kts
24-Jun-20 18:26 33.824824 -116.506256 323 415ft 0kts
24-Jun-20 18:27 33.824824 -116.506256 323 415ft 0kts
24-Jun-20 18:28 33.824840 -116.506270 323 415ft 0kts
24-Jun-20 18:29 33.825380 -116.506157 75 416ft 4kts
24-Jun-20 18:30 33.823286 -116.504029 143 410ft 17kts
24-Jun-20 18:31 33.819917 -116.501027 143 401ft 14kts
24-Jun-20 18:32 33.818527 -116.498954 87 397ft 0kts
24-Jun-20 18:33 33.818527 -116.498953 87 397ft 0kts
24-Jun-20 18:34 33.818527 -116.498953 87 397ft 0kts
24-Jun-20 18:35 33.818527 -116.498953 87 397ft 0kts
24-Jun-20 18:37 33.818527 -116.498953 87 397ft 0kts
24-Jun-20 18:38 33.818899 -116.498247 7 395ft 6kts
24-Jun-20 18:39 33.823589 -116.502234 323 407ft 85kts
24-Jun-20 18:40 33.856071 -116.537615 316 1915ft 189kts
24-Jun-20 18:41 33.904037 -116.568519 13 1597ft 215kts
24-Jun-20 18:42 33.913014 -116.517205 111 2145ft 153kts
24-Jun-20 18:43 33.887058 -116.461884 121 3909ft 194kts
24-Jun-20 18:44 33.858334 -116.402019 113 5961ft 226kts
24-Jun-20 18:45 33.891252 -116.350043 11 8111ft 247kts
24-Jun-20 18:46 33.964494 -116.328762 11 10179ft 292kts
24-Jun-20 18:47 34.039070 -116.339373 308 12130ft 291kts
24-Jun-20 18:48 34.044972 -116.429249 266 14314ft 276kts
24-Jun-20 18:49 34.056266 -116.524567 291 16865ft 297kts
24-Jun-20 18:50 34.089897 -116.618096 294 19389ft 306kts
24-Jun-20 18:51 34.126996 -116.715503 293 21882ft 319kts
24-Jun-20 18:51 34.157673 -116.795903 292 23547ft 314kts
24-Jun-20 18:53 34.201012 -116.909987 292 25919ft 329kts
24-Jun-20 18:54 34.240060 -117.013006 292 27486ft 339kts
24-Jun-20 18:54 34.273290 -117.100949 292 28205ft 356kts
24-Jun-20 18:56 34.324963 -117.238158 292 28050ft 406kts
24-Jun-20 18:57 34.372127 -117.363829 292 27903ft 402kts
24-Jun-20 18:57 34.410382 -117.466184 292 27905ft 401kts
24-Jun-20 18:58 34.456539 -117.590091 292 27872ft 404kts
24-Jun-20 18:59 34.502778 -117.714692 291 27874ft 406kts
24-Jun-20 19:00 34.548952 -117.839571 291 27872ft 405kts
24-Jun-20 19:01 34.594752 -117.964025 292 27881ft 404kts
24-Jun-20 19:02 34.643030 -118.087502 297 27883ft 404kts
24-Jun-20 19:03 34.699087 -118.206163 298 27880ft 407kts
24-Jun-20 19:04 34.755293 -118.324797 297 27882ft 407kts
24-Jun-20 19:05 34.812089 -118.445142 297 27878ft 413kts
24-Jun-20 19:06 34.869535 -118.567248 297 28059ft 413kts
24-Jun-20 19:07 34.926506 -118.688784 297 28067ft 418kts
24-Jun-20 19:08 34.984295 -118.812444 296 28066ft 418kts
24-Jun-20 19:09 35.041786 -118.935997 296 28064ft 417kts
24-Jun-20 19:10 35.099241 -119.059884 296 27871ft 420kts
24-Jun-20 19:11 35.157142 -119.185165 296 27770ft 417kts
24-Jun-20 19:12 35.214004 -119.308606 296 27768ft 415kts
24-Jun-20 19:13 35.270339 -119.431489 296 27768ft 416kts
24-Jun-20 19:14 35.327435 -119.556358 296 27766ft 419kts
24-Jun-20 19:15 35.384248 -119.681105 295 27760ft 417kts
24-Jun-20 19:16 35.440993 -119.806088 295 27754ft 420kts
24-Jun-20 19:17 35.497511 -119.931145 295 27752ft 415kts
24-Jun-20 19:18 35.553253 -120.054892 295 27844ft 413kts
24-Jun-20 19:19 35.608928 -120.178949 295 27844ft 416kts
24-Jun-20 19:20 35.664883 -120.304050 295 27842ft 419kts
24-Jun-20 19:21 35.716552 -120.432379 292 27841ft 419kts
24-Jun-20 19:22 35.766288 -120.562522 292 27838ft 414kts
24-Jun-20 19:23 35.814922 -120.690311 291 27848ft 415kts
24-Jun-20 19:24 35.864081 -120.820014 291 27850ft 418kts
24-Jun-20 19:25 35.912637 -120.948655 291 27845ft 412kts
24-Jun-20 19:26 35.961105 -121.077603 291 27846ft 420kts
24-Jun-20 19:27 36.010816 -121.210398 291 27819ft 422kts
24-Jun-20 19:28 36.061489 -121.342968 299 26181ft 428kts
24-Jun-20 19:29 36.155773 -121.432620 323 24370ft 433kts
24-Jun-20 19:30 36.256098 -121.511268 324 22583ft 437kts
24-Jun-20 19:31 36.352704 -121.586998 325 20902ft 432kts
24-Jun-20 19:32 36.438807 -121.654634 325 19399ft 352kts
24-Jun-20 19:33 36.517062 -121.716360 325 18011ft 359kts
24-Jun-20 19:34 36.598678 -121.780914 325 16549ft 353kts
24-Jun-20 19:35 36.682080 -121.847005 326 15111ft 354kts
24-Jun-20 19:36 36.760256 -121.898363 344 13740ft 348kts
24-Jun-20 19:37 36.841734 -121.922103 345 12434ft 343kts
24-Jun-20 19:38 36.940857 -121.949883 346 10826ft 339kts
24-Jun-20 19:39 37.007210 -121.974680 341 9614ft 293kts
24-Jun-20 19:40 37.066263 -121.997670 341 8460ft 287kts
24-Jun-20 19:41 37.119764 -122.018565 341 7405ft 285kts
24-Jun-20 19:42 37.185628 -122.044278 340 6053ft 265kts
24-Jun-20 19:43 37.269994 -122.077428 340 5999ft 262kts
24-Jun-20 19:44 37.361867 -122.113599 340 6000ft 269kts
24-Jun-20 19:45 37.434359 -122.139092 342 5106ft 245kts
24-Jun-20 19:46 37.495624 -122.159961 343 3950ft 211kts
24-Jun-20 19:47 37.543117 -122.192596 288 3693ft 199kts
24-Jun-20 19:48 37.568796 -122.256368 296 2164ft 187kts
24-Jun-20 19:49 37.589843 -122.306424 298 992ft 136kts
24-Jun-20 19:50 37.605811 -122.344323 298 316ft 120kts
24-Jun-20 19:51 37.618294 -122.374032 298 15ft 51kts
24-Jun-20 19:52 37.621395 -122.383111 214 28ft 0kts
24-Jun-20 19:53 37.621309 -122.383165 201 28ft 2kts
24-Jun-20 19:54 37.620789 -122.384673 300 28ft 10kts
24-Jun-20 19:55 37.621985 -122.387603 294 28ft 9kts
24-Jun-20 19:56 37.621649 -122.391441 206 28ft 13kts
24-Jun-20 19:57 37.619536 -122.389903 95 28ft 7kts
24-Jun-20 19:58 37.620136 -122.389424 27 28ft 0kts
24-Jun-20 19:59 37.620136 -122.389424 27 28ft 0kts

Navigation Log

Ident Type
Flight plan parsing failed, navigation log unavailable